createdAt,value
2019-01-08T00:02:19.420Z,74.79
2019-01-08T00:07:25.309Z,75.21
2019-01-08T00:12:31.330Z,75.26
2019-01-08T00:17:37.427Z,75.18
2019-01-08T00:22:43.830Z,74.85
2019-01-08T00:27:50.098Z,75.23
2019-01-08T00:32:56.088Z,74.95
2019-01-08T00:38:02.076Z,74.90
2019-01-08T00:43:08.402Z,74.92
2019-01-08T00:48:14.704Z,74.99
2019-01-08T00:53:20.446Z,74.86
2019-01-08T00:58:26.448Z,74.95
2019-01-08T01:03:32.732Z,75.13
2019-01-08T01:08:38.788Z,75.59
2019-01-08T01:13:45.084Z,75.51
2019-01-08T01:18:51.909Z,75.62
2019-01-08T01:23:58.261Z,75.56
2019-01-08T01:29:04.314Z,75.76
2019-01-08T01:34:10.702Z,75.67
2019-01-08T01:39:17.405Z,75.79
2019-01-08T01:44:23.679Z,75.63
2019-01-08T01:49:29.877Z,75.93
2019-01-08T01:54:36.360Z,75.87
2019-01-08T01:59:42.563Z,75.70
2019-01-08T02:04:49.911Z,76.33
2019-01-08T02:09:56.020Z,76.44
2019-01-08T02:15:01.984Z,76.77
2019-01-08T02:20:08.365Z,76.73
2019-01-08T02:25:14.630Z,76.31
2019-01-08T02:30:20.722Z,76.88
2019-01-08T02:35:26.649Z,76.71
2019-01-08T02:40:32.654Z,76.75
2019-01-08T02:45:39.068Z,76.72
2019-01-08T02:50:45.444Z,76.89
2019-01-08T02:55:51.723Z,76.83
2019-01-08T03:00:57.907Z,76.99
2019-01-08T03:06:04.048Z,77.02
2019-01-08T03:11:10.018Z,77.15
2019-01-08T03:16:16.117Z,77.29
2019-01-08T03:21:21.965Z,77.54
2019-01-08T03:26:28.068Z,77.36
2019-01-08T03:31:34.609Z,77.26
2019-01-08T03:36:40.807Z,77.41
2019-01-08T03:41:46.843Z,77.14
2019-01-08T03:46:53.595Z,77.27
2019-01-08T03:51:59.643Z,77.75
2019-01-08T03:57:06.142Z,77.77
2019-01-08T04:02:12.102Z,77.71
2019-01-08T04:07:18.420Z,77.55
2019-01-08T04:12:25.030Z,77.67
2019-01-08T04:17:31.168Z,77.50
2019-01-08T04:22:37.666Z,77.74
2019-01-08T04:27:44.055Z,77.61
2019-01-08T04:32:50.322Z,78.06
2019-01-08T04:37:56.502Z,77.87
2019-01-08T04:43:02.342Z,77.65
2019-01-08T04:48:08.440Z,77.90
2019-01-08T04:53:15.026Z,77.93
2019-01-08T04:58:21.424Z,77.89
2019-01-08T05:03:28.601Z,77.86
2019-01-08T05:08:34.667Z,77.61
2019-01-08T05:13:40.590Z,77.69
2019-01-08T05:18:46.850Z,77.70
2019-01-08T05:23:53.545Z,77.42
2019-01-08T05:28:59.819Z,77.35
2019-01-08T05:34:06.525Z,77.54
2019-01-08T05:39:12.898Z,77.63
2019-01-08T05:44:19.159Z,77.48
2019-01-08T05:49:25.552Z,77.14
2019-01-08T05:54:31.940Z,77.35
2019-01-08T05:59:38.516Z,77.26
2019-01-08T06:04:45.430Z,77.14
2019-01-08T06:09:51.907Z,77.16
2019-01-08T06:14:58.218Z,77.41
2019-01-08T06:20:05.274Z,77.27
2019-01-08T06:25:11.542Z,77.21
2019-01-08T06:30:24.739Z,77.19
2019-01-08T06:35:25.978Z,77.48
2019-01-08T06:40:32.446Z,77.36
2019-01-08T06:45:38.941Z,77.70
2019-01-08T06:50:45.093Z,77.37
2019-01-08T06:55:51.599Z,77.88
2019-01-08T07:00:57.962Z,77.71
2019-01-08T07:06:04.464Z,77.53
2019-01-08T07:11:10.974Z,77.70
2019-01-08T07:16:17.174Z,77.91
2019-01-08T07:21:23.514Z,77.95
2019-01-08T07:26:29.789Z,77.54
2019-01-08T07:31:36.291Z,77.97
2019-01-08T07:36:42.866Z,77.78
2019-01-08T07:41:49.569Z,77.99
2019-01-08T07:46:56.170Z,77.99
2019-01-08T07:52:02.318Z,77.76
2019-01-08T07:57:08.545Z,78.22
2019-01-08T08:02:15.193Z,77.87
2019-01-08T08:07:21.607Z,77.70
2019-01-08T08:12:27.635Z,77.66
2019-01-08T08:17:33.923Z,77.27
2019-01-08T08:22:40.431Z,77.36
2019-01-08T08:27:47.001Z,77.61
2019-01-08T08:32:53.491Z,77.27
2019-01-08T08:38:00.007Z,77.17
2019-01-08T08:43:06.780Z,77.47
2019-01-08T08:48:12.830Z,77.55
2019-01-08T08:53:19.022Z,77.18
2019-01-08T08:58:24.958Z,76.99
2019-01-08T09:03:31.062Z,77.21
2019-01-08T09:08:37.558Z,76.99
2019-01-08T09:13:43.998Z,77.08
2019-01-08T09:18:49.990Z,76.89
2019-01-08T09:23:56.286Z,77.18
2019-01-08T09:29:02.819Z,76.88
2019-01-08T09:34:09.252Z,76.76
2019-01-08T09:39:15.342Z,76.80
2019-01-08T09:44:21.428Z,76.49
2019-01-08T09:49:27.777Z,76.27
2019-01-08T09:54:33.435Z,76.50
2019-01-08T09:59:39.512Z,76.33
2019-01-08T10:04:47.351Z,76.21
2019-01-08T10:09:53.247Z,76.28
2019-01-08T10:15:00.747Z,76.20
2019-01-08T10:20:09.359Z,76.29
2019-01-08T10:25:15.639Z,76.44
2019-01-08T10:30:21.595Z,76.32
2019-01-08T10:35:27.693Z,76.29
2019-01-08T10:40:34.409Z,75.91
2019-01-08T10:45:41.268Z,75.69
2019-01-08T10:50:47.773Z,75.93
2019-01-08T10:55:54.058Z,75.54
2019-01-08T11:01:00.540Z,75.57
2019-01-08T11:06:07.168Z,76.13
2019-01-08T11:11:13.278Z,76.08
2019-01-08T11:16:19.579Z,76.45
2019-01-08T11:21:25.715Z,76.16
2019-01-08T11:26:31.832Z,76.43
2019-01-08T11:31:37.950Z,76.34
2019-01-08T11:36:44.288Z,76.55
2019-01-08T11:41:50.438Z,76.44
2019-01-08T11:46:56.304Z,77.02
2019-01-08T11:52:02.623Z,77.03
2019-01-08T11:57:08.898Z,76.84
2019-01-08T12:02:15.645Z,76.32
2019-01-08T12:07:22.074Z,76.45
2019-01-08T12:12:28.563Z,76.25
2019-01-08T12:17:34.895Z,76.60
2019-01-08T12:22:41.244Z,75.83
2019-01-08T12:27:47.609Z,75.15
2019-01-08T12:32:53.829Z,75.09
2019-01-08T12:38:00.979Z,75.04
2019-01-08T12:43:07.369Z,74.81
2019-01-08T12:48:13.656Z,75.53
2019-01-08T12:53:19.613Z,75.63
2019-01-08T12:58:25.797Z,75.73
2019-01-08T13:03:31.776Z,75.29
2019-01-08T13:08:37.719Z,75.53
2019-01-08T13:13:44.024Z,75.85
2019-01-08T13:18:50.509Z,75.64
2019-01-08T13:23:56.435Z,75.33
2019-01-08T13:29:02.947Z,75.82
2019-01-08T13:34:09.551Z,75.89
2019-01-08T13:39:16.242Z,76.22
2019-01-08T13:44:23.035Z,76.08
2019-01-08T13:49:29.414Z,76.20
2019-01-08T13:54:35.702Z,76.35
2019-01-08T13:59:42.259Z,76.36
2019-01-08T14:04:48.565Z,76.88
2019-01-08T14:09:54.611Z,76.41
2019-01-08T14:15:01.013Z,77.40
2019-01-08T14:20:08.524Z,77.59
2019-01-08T14:25:14.737Z,77.58
2019-01-08T14:30:21.090Z,77.39
2019-01-08T14:35:27.142Z,77.70
2019-01-08T14:40:33.023Z,77.59
2019-01-08T14:45:39.397Z,77.65
2019-01-08T14:50:46.024Z,77.44
2019-01-08T14:55:52.350Z,77.51
2019-01-08T15:00:58.676Z,77.44
2019-01-08T15:06:04.925Z,77.27
2019-01-08T15:11:11.414Z,77.44
2019-01-08T15:16:18.031Z,77.62
2019-01-08T15:21:24.504Z,77.31
2019-01-08T15:26:30.789Z,77.23
2019-01-08T15:31:36.949Z,77.53
2019-01-08T15:36:43.162Z,77.26
2019-01-08T15:41:50.047Z,77.53
2019-01-08T15:46:56.534Z,77.69
2019-01-08T15:52:02.917Z,77.53
2019-01-08T15:57:09.385Z,78.01
2019-01-08T16:02:15.661Z,78.04
2019-01-08T16:07:21.937Z,78.07
2019-01-08T16:12:28.345Z,77.90
2019-01-08T16:17:34.707Z,77.93
2019-01-08T16:22:41.288Z,77.98
2019-01-08T16:27:47.690Z,77.84
2019-01-08T16:32:53.980Z,77.80
2019-01-08T16:37:59.856Z,77.64
2019-01-08T16:43:06.338Z,77.99
2019-01-08T16:48:12.720Z,78.36
2019-01-08T16:53:19.308Z,78.23
2019-01-08T16:58:25.350Z,78.60
2019-01-08T17:03:31.341Z,78.55
2019-01-08T17:08:37.532Z,78.79
2019-01-08T17:13:44.275Z,78.57
2019-01-08T17:18:50.772Z,78.65
2019-01-08T17:23:56.955Z,78.01
2019-01-08T17:29:03.197Z,78.98
2019-01-08T17:34:09.744Z,78.58
2019-01-08T17:39:15.727Z,79.09
2019-01-08T17:44:21.785Z,78.44
2019-01-08T17:49:28.136Z,78.42
2019-01-08T17:54:34.189Z,78.26
2019-01-08T17:59:40.382Z,78.46
2019-01-08T18:04:46.717Z,78.37
2019-01-08T18:09:53.215Z,78.34
2019-01-08T18:14:59.756Z,78.17
2019-01-08T18:20:07.395Z,78.37
2019-01-08T18:25:13.773Z,78.32
2019-01-08T18:30:20.102Z,78.50
2019-01-08T18:35:26.542Z,78.14
2019-01-08T18:40:32.803Z,78.30
2019-01-08T18:46:46.244Z,77.98
2019-01-08T18:51:52.468Z,78.03
2019-01-08T18:56:58.600Z,78.18
2019-01-08T19:02:05.901Z,77.92
2019-01-08T19:04:50.408Z,78.04
2019-01-08T19:05:26.272Z,78.03
2019-01-08T19:06:02.206Z,78.05
2019-01-08T19:06:38.599Z,78.10
2019-01-08T19:07:15.000Z,77.73
2019-01-08T19:07:50.836Z,77.71
2019-01-08T19:08:34.157Z,77.96
2019-01-08T19:09:23.296Z,78.29
2019-01-08T19:10:13.132Z,77.94
2019-01-08T19:10:49.301Z,78.14
2019-01-08T19:11:25.514Z,78.33
2019-01-08T19:12:01.616Z,78.29
2019-01-08T19:12:37.739Z,78.56
2019-01-08T19:13:13.423Z,78.40
2019-01-08T19:13:49.353Z,78.25
2019-01-08T19:14:30.447Z,78.36
2019-01-08T19:15:06.795Z,78.70
2019-01-08T19:15:42.815Z,78.60
2019-01-08T19:16:18.982Z,78.20
2019-01-08T19:16:55.135Z,77.95
2019-01-08T19:17:31.323Z,78.03
2019-01-08T19:18:07.778Z,77.80
2019-01-08T19:18:43.868Z,77.55
2019-01-08T19:19:19.971Z,77.72
2019-01-08T19:19:56.067Z,77.69
2019-01-08T19:20:31.904Z,77.69
2019-01-08T19:21:07.915Z,77.52
2019-01-08T19:26:29.268Z,77.57
2019-01-08T19:31:35.623Z,77.46
2019-01-08T19:36:42.021Z,77.60
2019-01-08T19:41:48.367Z,77.27
2019-01-08T19:46:54.871Z,77.33
2019-01-08T19:52:01.351Z,77.35
2019-01-08T19:57:07.735Z,77.71
2019-01-08T20:02:13.998Z,77.15
2019-01-08T20:07:19.886Z,77.69
2019-01-08T20:12:26.152Z,77.52
2019-01-08T20:17:32.123Z,77.54
2019-01-08T20:22:38.328Z,77.78
2019-01-08T20:27:44.583Z,77.58
2019-01-08T20:32:51.904Z,77.62
2019-01-08T20:37:58.284Z,77.44
2019-01-08T20:43:04.779Z,77.59
2019-01-08T20:48:11.250Z,77.36
2019-01-08T20:53:17.727Z,77.24
2019-01-08T20:58:28.653Z,77.21
2019-01-08T21:03:31.765Z,77.46
2019-01-08T21:08:38.011Z,77.26
2019-01-08T21:13:44.057Z,77.03
2019-01-08T21:18:50.079Z,77.55
2019-01-08T21:23:56.026Z,77.37
2019-01-08T21:29:03.919Z,77.63
2019-01-08T21:34:10.149Z,77.28
2019-01-08T21:39:16.848Z,77.25
2019-01-08T21:44:23.228Z,77.48
2019-01-08T21:49:29.689Z,77.34
2019-01-08T21:54:35.964Z,77.19
2019-01-08T21:59:42.364Z,77.31
2019-01-08T22:04:53.276Z,77.20
2019-01-08T22:09:57.178Z,77.02
2019-01-08T22:15:03.866Z,77.04
2019-01-08T22:20:11.690Z,76.88
2019-01-08T22:25:17.835Z,77.27
2019-01-08T22:30:24.147Z,77.26
2019-01-08T22:35:30.912Z,76.95
2019-01-08T22:40:37.927Z,77.19
2019-01-08T22:45:44.307Z,77.13
2019-01-08T22:50:51.841Z,76.82
2019-01-08T22:55:57.865Z,77.04
2019-01-08T23:01:08.381Z,77.24
2019-01-08T23:06:14.861Z,77.22
2019-01-08T23:11:21.166Z,76.98
2019-01-08T23:16:27.927Z,77.33
2019-01-08T23:21:34.077Z,77.60
2019-01-08T23:26:40.414Z,77.39
2019-01-08T23:31:46.898Z,77.74
2019-01-08T23:36:53.230Z,77.44
2019-01-08T23:41:59.761Z,77.78
2019-01-08T23:47:07.134Z,77.54
2019-01-08T23:52:14.540Z,77.30
2019-01-08T23:57:21.122Z,77.54
